Aérodrome :
LOGIN :

S'inscrire | Disclaimer

   EN    FR    IT 

 










Légende :    VFR   VFR Marginal   IFR   IFR Intensif   IFR Très Intensif
Visi : 
Plafond : 
>= 8 km
>= 3000ft
5 à 8 km
1000 à 3000 ft
1500m à 5 km
500 à 1000 ft
800 à 1500m
200 à 500 ft
< 800m
< 200 ft
Symboles :   Orages  Brouillard  Fortes neiges  Fortes précipitations  Vent > 20 kt
SIGMETs :   Divers  Orages  Givrage  Turbulence  Onde Orograph.  Cendres Volcan.






- Altitude de l'aérodrome : 187 ft


ETNW - Wunstorf AB

DERNIER METAR :
  • 091720Z 02003KT 0250 R08/0350N FZFG M02/M02 Q1006 RED AMB TEMPO RED

METARs EXPIRÉS :
  • 091620Z 01003KT 0250 R08/0300N FZFG FEW010 M01/M01 Q1006 RED AMB TEMPO RED
  • 091558Z 01001KT 0700 R08/0550N FZFG FEW010 M01/M01 Q1006 RED AMB TEMPO RED
  • 091549Z 01002KT 1500 R08/0550D VCFG MIFG FEW010 M01/M01 Q1006 AMB AMB TEMPO RED
  • 091520Z 09001KT 4800 VCFG MIFG FEW010 M01/M01 Q1006 GRN GRN TEMPO BLU

TAF AMD TAF ETNW
Valide du 09 à 16h jusqu'au 10 à 12h UTC


091624Z 0916/1012 VRB03KT 1500 BR FEW010
TEMPO 0916/1008 VRB01KT 0500 FZFG VV001
BECMG 1010/1012 03005KT 7000 NSW BKN020 BY ETGL



MET'MAP, la Météo Aéronautique d'un coup d'oeil ! - Copyright ORBIFLY Décembre 2007 - Disclaimer

ORBIFLY MET'MAP TEAM :

Programmation & Développement : Alexandra Zaïnal
Sur une idée originale de : Baudouin d'Aumeries
Soutien technique & logistique : Manuel Goepfert
Assistance : Marc-Olivier Méhu




SOURCES & CREDITS :

   NOAA